sensor_id;sensor_type;location;lat;lon;timestamp;P1;durP1;ratioP1;P2;durP2;ratioP2
253;SDS011;590;48.772;8.846;2023-12-07T00:01:26;11.35;;;10.75;;
253;SDS011;590;48.772;8.846;2023-12-07T00:03:54;11.25;;;10.65;;
253;SDS011;590;48.772;8.846;2023-12-07T00:06:22;10.50;;;9.95;;
253;SDS011;590;48.772;8.846;2023-12-07T00:08:50;10.40;;;9.88;;
253;SDS011;590;48.772;8.846;2023-12-07T00:11:18;10.88;;;10.27;;
253;SDS011;590;48.772;8.846;2023-12-07T00:13:46;11.13;;;10.52;;
253;SDS011;590;48.772;8.846;2023-12-07T00:16:16;11.05;;;10.45;;
253;SDS011;590;48.772;8.846;2023-12-07T00:18:44;11.27;;;10.68;;
253;SDS011;590;48.772;8.846;2023-12-07T00:21:13;9.93;;;9.43;;
253;SDS011;590;48.772;8.846;2023-12-07T00:23:40;11.10;;;10.50;;
253;SDS011;590;48.772;8.846;2023-12-07T00:26:08;12.02;;;11.07;;
253;SDS011;590;48.772;8.846;2023-12-07T00:28:37;12.05;;;11.45;;
253;SDS011;590;48.772;8.846;2023-12-07T00:31:05;10.18;;;9.68;;
253;SDS011;590;48.772;8.846;2023-12-07T00:33:35;10.35;;;9.85;;
253;SDS011;590;48.772;8.846;2023-12-07T00:36:03;10.85;;;10.25;;
253;SDS011;590;48.772;8.846;2023-12-07T00:38:32;10.63;;;10.02;;
253;SDS011;590;48.772;8.846;2023-12-07T00:41:00;10.80;;;10.20;;
253;SDS011;590;48.772;8.846;2023-12-07T00:43:27;10.25;;;9.75;;
253;SDS011;590;48.772;8.846;2023-12-07T00:45:56;10.38;;;9.88;;
253;SDS011;590;48.772;8.846;2023-12-07T00:48:25;9.90;;;9.40;;
253;SDS011;590;48.772;8.846;2023-12-07T00:50:54;9.85;;;9.35;;
253;SDS011;590;48.772;8.846;2023-12-07T00:53:22;10.68;;;10.10;;
253;SDS011;590;48.772;8.846;2023-12-07T00:55:50;10.65;;;10.05;;
253;SDS011;590;48.772;8.846;2023-12-07T00:58:18;10.20;;;9.70;;
253;SDS011;590;48.772;8.846;2023-12-07T01:00:46;10.35;;;9.85;;
253;SDS011;590;48.772;8.846;2023-12-07T01:03:14;9.93;;;9.43;;
253;SDS011;590;48.772;8.846;2023-12-07T01:05:42;9.75;;;9.25;;
253;SDS011;590;48.772;8.846;2023-12-07T01:08:12;9.55;;;9.05;;
253;SDS011;590;48.772;8.846;2023-12-07T01:10:40;8.65;;;8.15;;
253;SDS011;590;48.772;8.846;2023-12-07T01:15:39;9.50;;;9.00;;
253;SDS011;590;48.772;8.846;2023-12-07T01:18:07;9.38;;;8.88;;
253;SDS011;590;48.772;8.846;2023-12-07T01:20:35;10.13;;;9.63;;
253;SDS011;590;48.772;8.846;2023-12-07T01:23:03;13.10;;;12.27;;
253;SDS011;590;48.772;8.846;2023-12-07T01:25:32;14.45;;;13.73;;
253;SDS011;590;48.772;8.846;2023-12-07T01:28:00;14.68;;;13.93;;
253;SDS011;590;48.772;8.846;2023-12-07T01:30:28;12.45;;;11.85;;
253;SDS011;590;48.772;8.846;2023-12-07T01:32:56;13.95;;;13.25;;
253;SDS011;590;48.772;8.846;2023-12-07T01:35:24;14.27;;;13.57;;
253;SDS011;590;48.772;8.846;2023-12-07T01:37:52;13.57;;;12.88;;
253;SDS011;590;48.772;8.846;2023-12-07T01:40:20;13.38;;;12.68;;
253;SDS011;590;48.772;8.846;2023-12-07T01:42:50;13.38;;;12.68;;
253;SDS011;590;48.772;8.846;2023-12-07T01:45:19;11.82;;;11.23;;
253;SDS011;590;48.772;8.846;2023-12-07T01:47:48;12.60;;;11.95;;
253;SDS011;590;48.772;8.846;2023-12-07T01:50:19;14.50;;;13.77;;
253;SDS011;590;48.772;8.846;2023-12-07T01:52:52;12.95;;;12.25;;
253;SDS011;590;48.772;8.846;2023-12-07T01:55:22;13.35;;;12.65;;
253;SDS011;590;48.772;8.846;2023-12-07T01:57:52;12.38;;;11.77;;
253;SDS011;590;48.772;8.846;2023-12-07T02:00:20;13.98;;;13.27;;
253;SDS011;590;48.772;8.846;2023-12-07T02:02:48;12.50;;;11.88;;
253;SDS011;590;48.772;8.846;2023-12-07T02:05:17;13.10;;;12.40;;
253;SDS011;590;48.772;8.846;2023-12-07T02:07:45;12.93;;;12.23;;
253;SDS011;590;48.772;8.846;2023-12-07T02:10:14;13.00;;;12.30;;
253;SDS011;590;48.772;8.846;2023-12-07T02:12:42;13.23;;;12.52;;
253;SDS011;590;48.772;8.846;2023-12-07T02:15:12;12.30;;;11.70;;
253;SDS011;590;48.772;8.846;2023-12-07T02:17:42;12.35;;;11.75;;
253;SDS011;590;48.772;8.846;2023-12-07T02:20:18;10.88;;;10.27;;
253;SDS011;590;48.772;8.846;2023-12-07T02:22:52;12.20;;;11.60;;
253;SDS011;590;48.772;8.846;2023-12-07T02:25:23;12.82;;;12.13;;
253;SDS011;590;48.772;8.846;2023-12-07T02:27:58;11.70;;;11.10;;
253;SDS011;590;48.772;8.846;2023-12-07T02:30:26;11.70;;;11.10;;
253;SDS011;590;48.772;8.846;2023-12-07T02:32:54;10.63;;;10.05;;
253;SDS011;590;48.772;8.846;2023-12-07T02:35:22;11.10;;;10.50;;
253;SDS011;590;48.772;8.846;2023-12-07T02:37:51;10.27;;;9.77;;
253;SDS011;590;48.772;8.846;2023-12-07T02:40:21;10.70;;;10.10;;
253;SDS011;590;48.772;8.846;2023-12-07T02:46:39;10.48;;;9.93;;
253;SDS011;590;48.772;8.846;2023-12-07T02:49:08;11.25;;;10.65;;
253;SDS011;590;48.772;8.846;2023-12-07T02:51:36;11.45;;;10.85;;
253;SDS011;590;48.772;8.846;2023-12-07T02:54:04;11.45;;;10.85;;
253;SDS011;590;48.772;8.846;2023-12-07T02:56:32;12.35;;;11.75;;
253;SDS011;590;48.772;8.846;2023-12-07T02:59:00;12.05;;;11.45;;
253;SDS011;590;48.772;8.846;2023-12-07T03:01:28;12.52;;;11.88;;
253;SDS011;590;48.772;8.846;2023-12-07T03:03:58;13.25;;;12.55;;
253;SDS011;590;48.772;8.846;2023-12-07T03:06:26;12.70;;;12.02;;
253;SDS011;590;48.772;8.846;2023-12-07T03:08:54;12.63;;;11.98;;
253;SDS011;590;48.772;8.846;2023-12-07T03:11:22;12.25;;;11.07;;
253;SDS011;590;48.772;8.846;2023-12-07T03:13:50;12.23;;;10.90;;
253;SDS011;590;48.772;8.846;2023-12-07T03:16:18;12.43;;;11.82;;
253;SDS011;590;48.772;8.846;2023-12-07T03:18:46;11.75;;;11.15;;
253;SDS011;590;48.772;8.846;2023-12-07T03:21:16;10.95;;;10.35;;
253;SDS011;590;48.772;8.846;2023-12-07T03:23:44;11.40;;;10.80;;
253;SDS011;590;48.772;8.846;2023-12-07T03:26:12;10.15;;;9.65;;
253;SDS011;590;48.772;8.846;2023-12-07T03:28:40;11.63;;;11.02;;
253;SDS011;590;48.772;8.846;2023-12-07T03:31:08;10.25;;;9.75;;
253;SDS011;590;48.772;8.846;2023-12-07T03:33:36;11.80;;;11.20;;
253;SDS011;590;48.772;8.846;2023-12-07T03:36:05;10.30;;;9.80;;
253;SDS011;590;48.772;8.846;2023-12-07T03:38:35;11.40;;;10.80;;
253;SDS011;590;48.772;8.846;2023-12-07T03:41:03;10.60;;;10.02;;
253;SDS011;590;48.772;8.846;2023-12-07T03:43:31;10.25;;;9.75;;
253;SDS011;590;48.772;8.846;2023-12-07T03:45:59;10.52;;;9.98;;
253;SDS011;590;48.772;8.846;2023-12-07T03:48:31;10.38;;;9.88;;
253;SDS011;590;48.772;8.846;2023-12-07T03:51:00;9.60;;;9.10;;
253;SDS011;590;48.772;8.846;2023-12-07T03:53:28;9.32;;;8.82;;
253;SDS011;590;48.772;8.846;2023-12-07T03:55:57;8.95;;;8.45;;
253;SDS011;590;48.772;8.846;2023-12-07T03:58:25;9.32;;;8.82;;
253;SDS011;590;48.772;8.846;2023-12-07T04:00:53;10.10;;;9.60;;
253;SDS011;590;48.772;8.846;2023-12-07T04:03:21;8.88;;;8.38;;
253;SDS011;590;48.772;8.846;2023-12-07T04:05:49;10.75;;;10.15;;
253;SDS011;590;48.772;8.846;2023-12-07T04:08:18;10.00;;;9.50;;
253;SDS011;590;48.772;8.846;2023-12-07T04:10:46;9.32;;;8.82;;
253;SDS011;590;48.772;8.846;2023-12-07T04:13:15;8.95;;;8.45;;
253;SDS011;590;48.772;8.846;2023-12-07T04:15:45;9.98;;;9.48;;
253;SDS011;590;48.772;8.846;2023-12-07T04:18:13;10.95;;;10.35;;
253;SDS011;590;48.772;8.846;2023-12-07T04:20:41;10.02;;;9.52;;
253;SDS011;590;48.772;8.846;2023-12-07T04:23:09;11.65;;;11.05;;
253;SDS011;590;48.772;8.846;2023-12-07T04:25:38;10.35;;;9.85;;
253;SDS011;590;48.772;8.846;2023-12-07T04:28:06;10.32;;;9.65;;
253;SDS011;590;48.772;8.846;2023-12-07T04:30:35;20.10;;;17.70;;
253;SDS011;590;48.772;8.846;2023-12-07T04:33:03;14.98;;;14.18;;
253;SDS011;590;48.772;8.846;2023-12-07T04:35:32;15.98;;;15.18;;
253;SDS011;590;48.772;8.846;2023-12-07T04:38:00;10.70;;;10.10;;
253;SDS011;590;48.772;8.846;2023-12-07T04:40:28;9.80;;;9.30;;
253;SDS011;590;48.772;8.846;2023-12-07T04:42:56;9.55;;;9.05;;
253;SDS011;590;48.772;8.846;2023-12-07T04:45:24;9.50;;;9.00;;
253;SDS011;590;48.772;8.846;2023-12-07T04:47:54;9.30;;;8.80;;
253;SDS011;590;48.772;8.846;2023-12-07T04:50:23;9.60;;;9.10;;
253;SDS011;590;48.772;8.846;2023-12-07T04:52:51;9.23;;;8.73;;
253;SDS011;590;48.772;8.846;2023-12-07T04:55:21;9.00;;;8.50;;
253;SDS011;590;48.772;8.846;2023-12-07T04:57:49;8.98;;;8.48;;
253;SDS011;590;48.772;8.846;2023-12-07T05:00:17;7.93;;;7.53;;
253;SDS011;590;48.772;8.846;2023-12-07T05:02:46;10.32;;;9.75;;
253;SDS011;590;48.772;8.846;2023-12-07T05:05:15;9.05;;;8.55;;
253;SDS011;590;48.772;8.846;2023-12-07T05:07:44;9.10;;;8.60;;
253;SDS011;590;48.772;8.846;2023-12-07T05:10:12;8.25;;;7.85;;
253;SDS011;590;48.772;8.846;2023-12-07T05:12:40;9.18;;;8.68;;
253;SDS011;590;48.772;8.846;2023-12-07T05:15:08;9.15;;;8.65;;
253;SDS011;590;48.772;8.846;2023-12-07T05:17:37;9.10;;;8.60;;
253;SDS011;590;48.772;8.846;2023-12-07T05:20:05;9.40;;;8.90;;
253;SDS011;590;48.772;8.846;2023-12-07T05:22:35;9.30;;;8.80;;
253;SDS011;590;48.772;8.846;2023-12-07T05:25:04;8.18;;;7.78;;
253;SDS011;590;48.772;8.846;2023-12-07T05:27:32;10.60;;;10.00;;
253;SDS011;590;48.772;8.846;2023-12-07T05:30:01;9.88;;;9.38;;
253;SDS011;590;48.772;8.846;2023-12-07T05:32:29;12.85;;;12.15;;
253;SDS011;590;48.772;8.846;2023-12-07T05:34:57;12.55;;;11.93;;
253;SDS011;590;48.772;8.846;2023-12-07T05:37:25;12.23;;;11.63;;
253;SDS011;590;48.772;8.846;2023-12-07T05:39:55;11.27;;;10.68;;
253;SDS011;590;48.772;8.846;2023-12-07T05:42:23;11.50;;;10.90;;
253;SDS011;590;48.772;8.846;2023-12-07T05:44:52;12.20;;;11.60;;
253;SDS011;590;48.772;8.846;2023-12-07T05:47:20;9.82;;;9.32;;
253;SDS011;590;48.772;8.846;2023-12-07T05:49:49;9.20;;;8.70;;
253;SDS011;590;48.772;8.846;2023-12-07T05:52:17;11.73;;;11.13;;
253;SDS011;590;48.772;8.846;2023-12-07T05:54:45;10.43;;;9.90;;
253;SDS011;590;48.772;8.846;2023-12-07T05:57:15;11.70;;;11.10;;
253;SDS011;590;48.772;8.846;2023-12-07T05:59:43;10.15;;;9.65;;
253;SDS011;590;48.772;8.846;2023-12-07T06:02:11;11.35;;;10.75;;
253;SDS011;590;48.772;8.846;2023-12-07T06:04:40;11.85;;;11.25;;
253;SDS011;590;48.772;8.846;2023-12-07T06:07:08;10.25;;;9.75;;
253;SDS011;590;48.772;8.846;2023-12-07T06:09:38;9.52;;;9.02;;
253;SDS011;590;48.772;8.846;2023-12-07T06:12:06;10.25;;;9.75;;
253;SDS011;590;48.772;8.846;2023-12-07T06:14:52;9.75;;;9.25;;
253;SDS011;590;48.772;8.846;2023-12-07T06:17:21;9.40;;;8.90;;
253;SDS011;590;48.772;8.846;2023-12-07T06:19:49;9.30;;;8.63;;
253;SDS011;590;48.772;8.846;2023-12-07T06:22:17;10.05;;;9.55;;
253;SDS011;590;48.772;8.846;2023-12-07T06:24:45;8.55;;;8.05;;
253;SDS011;590;48.772;8.846;2023-12-07T06:27:13;8.73;;;8.25;;
253;SDS011;590;48.772;8.846;2023-12-07T06:29:41;8.02;;;7.63;;
253;SDS011;590;48.772;8.846;2023-12-07T06:32:11;12.18;;;9.20;;
253;SDS011;590;48.772;8.846;2023-12-07T06:34:39;11.60;;;9.88;;
253;SDS011;590;48.772;8.846;2023-12-07T06:37:09;12.40;;;11.77;;
253;SDS011;590;48.772;8.846;2023-12-07T06:39:38;14.48;;;13.77;;
253;SDS011;590;48.772;8.846;2023-12-07T06:42:06;16.75;;;15.93;;
253;SDS011;590;48.772;8.846;2023-12-07T06:44:51;13.60;;;12.90;;
253;SDS011;590;48.772;8.846;2023-12-07T06:47:21;11.95;;;11.35;;
253;SDS011;590;48.772;8.846;2023-12-07T06:49:50;11.45;;;10.85;;
253;SDS011;590;48.772;8.846;2023-12-07T06:52:19;13.88;;;13.18;;
253;SDS011;590;48.772;8.846;2023-12-07T06:54:47;14.02;;;13.32;;
253;SDS011;590;48.772;8.846;2023-12-07T06:57:15;13.77;;;12.95;;
253;SDS011;590;48.772;8.846;2023-12-07T06:59:43;13.05;;;12.35;;
253;SDS011;590;48.772;8.846;2023-12-07T07:02:11;11.98;;;11.38;;
253;SDS011;590;48.772;8.846;2023-12-07T07:04:41;11.15;;;10.55;;
253;SDS011;590;48.772;8.846;2023-12-07T07:07:10;11.55;;;10.95;;
253;SDS011;590;48.772;8.846;2023-12-07T07:09:38;12.45;;;11.35;;
253;SDS011;590;48.772;8.846;2023-12-07T07:12:06;11.93;;;11.32;;
253;SDS011;590;48.772;8.846;2023-12-07T07:14:35;8.82;;;8.32;;
253;SDS011;590;48.772;8.846;2023-12-07T07:17:03;8.63;;;8.13;;
253;SDS011;590;48.772;8.846;2023-12-07T07:19:31;10.18;;;8.55;;
253;SDS011;590;48.772;8.846;2023-12-07T07:22:01;8.20;;;7.78;;
253;SDS011;590;48.772;8.846;2023-12-07T07:24:29;9.82;;;9.32;;
253;SDS011;590;48.772;8.846;2023-12-07T07:26:57;9.43;;;8.35;;
253;SDS011;590;48.772;8.846;2023-12-07T07:29:25;8.95;;;8.45;;
253;SDS011;590;48.772;8.846;2023-12-07T07:31:55;9.90;;;9.40;;
253;SDS011;590;48.772;8.846;2023-12-07T07:34:23;6.55;;;6.15;;
253;SDS011;590;48.772;8.846;2023-12-07T07:36:52;7.35;;;6.95;;
253;SDS011;590;48.772;8.846;2023-12-07T07:39:21;7.95;;;7.55;;
253;SDS011;590;48.772;8.846;2023-12-07T07:41:49;13.82;;;13.10;;
253;SDS011;590;48.772;8.846;2023-12-07T07:44:17;12.48;;;11.85;;
253;SDS011;590;48.772;8.846;2023-12-07T07:46:45;11.25;;;10.68;;
253;SDS011;590;48.772;8.846;2023-12-07T07:49:13;11.45;;;10.85;;
253;SDS011;590;48.772;8.846;2023-12-07T07:51:41;11.25;;;10.65;;
253;SDS011;590;48.772;8.846;2023-12-07T07:54:09;8.80;;;8.30;;
253;SDS011;590;48.772;8.846;2023-12-07T07:56:39;9.63;;;9.13;;
253;SDS011;590;48.772;8.846;2023-12-07T07:59:07;9.68;;;9.18;;
253;SDS011;590;48.772;8.846;2023-12-07T08:01:35;9.65;;;9.15;;
253;SDS011;590;48.772;8.846;2023-12-07T08:04:03;10.63;;;10.02;;
253;SDS011;590;48.772;8.846;2023-12-07T08:06:31;10.68;;;10.07;;
253;SDS011;590;48.772;8.846;2023-12-07T08:09:03;12.68;;;11.65;;
253;SDS011;590;48.772;8.846;2023-12-07T08:11:31;11.40;;;10.80;;
253;SDS011;590;48.772;8.846;2023-12-07T08:14:01;11.63;;;11.02;;
253;SDS011;590;48.772;8.846;2023-12-07T08:16:29;11.43;;;10.82;;
253;SDS011;590;48.772;8.846;2023-12-07T08:18:57;13.07;;;12.38;;
253;SDS011;590;48.772;8.846;2023-12-07T08:21:25;13.40;;;12.70;;
253;SDS011;590;48.772;8.846;2023-12-07T08:23:57;13.10;;;12.40;;
253;SDS011;590;48.772;8.846;2023-12-07T08:26:25;13.98;;;13.27;;
253;SDS011;590;48.772;8.846;2023-12-07T08:28:54;12.40;;;11.80;;
253;SDS011;590;48.772;8.846;2023-12-07T08:31:23;11.75;;;11.15;;
253;SDS011;590;48.772;8.846;2023-12-07T08:33:52;12.20;;;11.60;;
253;SDS011;590;48.772;8.846;2023-12-07T08:36:20;11.52;;;10.93;;
253;SDS011;590;48.772;8.846;2023-12-07T08:38:48;13.52;;;12.82;;
253;SDS011;590;48.772;8.846;2023-12-07T08:41:16;16.23;;;15.43;;
253;SDS011;590;48.772;8.846;2023-12-07T08:43:44;18.90;;;17.95;;
253;SDS011;590;48.772;8.846;2023-12-07T08:46:12;18.73;;;17.83;;
253;SDS011;590;48.772;8.846;2023-12-07T08:48:42;19.48;;;18.48;;
253;SDS011;590;48.772;8.846;2023-12-07T08:51:10;17.77;;;16.88;;
253;SDS011;590;48.772;8.846;2023-12-07T08:53:38;18.77;;;17.85;;
253;SDS011;590;48.772;8.846;2023-12-07T08:56:07;17.20;;;16.30;;
253;SDS011;590;48.772;8.846;2023-12-07T08:58:35;17.45;;;16.55;;
253;SDS011;590;48.772;8.846;2023-12-07T09:01:03;24.38;;;23.17;;
253;SDS011;590;48.772;8.846;2023-12-07T09:03:35;20.80;;;19.80;;
253;SDS011;590;48.772;8.846;2023-12-07T09:06:05;16.98;;;16.10;;
253;SDS011;590;48.772;8.846;2023-12-07T09:08:34;14.07;;;13.38;;
253;SDS011;590;48.772;8.846;2023-12-07T09:11:02;12.38;;;11.77;;
253;SDS011;590;48.772;8.846;2023-12-07T09:13:31;11.45;;;10.85;;
253;SDS011;590;48.772;8.846;2023-12-07T09:15:59;13.05;;;12.35;;
253;SDS011;590;48.772;8.846;2023-12-07T09:18:27;13.18;;;12.48;;
253;SDS011;590;48.772;8.846;2023-12-07T09:20:55;12.23;;;11.63;;
253;SDS011;590;48.772;8.846;2023-12-07T09:23:24;12.98;;;12.27;;
253;SDS011;590;48.772;8.846;2023-12-07T09:25:52;11.80;;;11.20;;
253;SDS011;590;48.772;8.846;2023-12-07T09:28:20;12.65;;;11.98;;
253;SDS011;590;48.772;8.846;2023-12-07T09:30:49;13.35;;;12.65;;
253;SDS011;590;48.772;8.846;2023-12-07T09:33:18;13.63;;;12.93;;
253;SDS011;590;48.772;8.846;2023-12-07T09:35:47;13.15;;;12.45;;
253;SDS011;590;48.772;8.846;2023-12-07T09:38:16;10.98;;;10.38;;
253;SDS011;590;48.772;8.846;2023-12-07T09:40:45;12.75;;;12.05;;
253;SDS011;590;48.772;8.846;2023-12-07T09:43:13;13.15;;;12.45;;
253;SDS011;590;48.772;8.846;2023-12-07T09:45:43;12.68;;;12.00;;
253;SDS011;590;48.772;8.846;2023-12-07T09:48:12;13.57;;;12.88;;
253;SDS011;590;48.772;8.846;2023-12-07T09:50:40;13.48;;;12.77;;
253;SDS011;590;48.772;8.846;2023-12-07T09:53:08;13.35;;;12.65;;
253;SDS011;590;48.772;8.846;2023-12-07T09:55:36;13.10;;;12.40;;
253;SDS011;590;48.772;8.846;2023-12-07T09:58:06;13.55;;;12.85;;
253;SDS011;590;48.772;8.846;2023-12-07T10:00:35;13.77;;;13.07;;
253;SDS011;590;48.772;8.846;2023-12-07T10:03:04;13.23;;;12.52;;
253;SDS011;590;48.772;8.846;2023-12-07T10:08:28;13.10;;;12.40;;
253;SDS011;590;48.772;8.846;2023-12-07T10:11:01;12.35;;;11.75;;
253;SDS011;590;48.772;8.846;2023-12-07T10:13:34;11.13;;;10.52;;
253;SDS011;590;48.772;8.846;2023-12-07T10:16:07;10.45;;;9.93;;
253;SDS011;590;48.772;8.846;2023-12-07T10:18:36;11.20;;;10.60;;
253;SDS011;590;48.772;8.846;2023-12-07T10:21:10;11.13;;;10.52;;
253;SDS011;590;48.772;8.846;2023-12-07T10:23:38;11.45;;;10.85;;
253;SDS011;590;48.772;8.846;2023-12-07T10:26:10;12.05;;;11.45;;
253;SDS011;590;48.772;8.846;2023-12-07T10:28:40;11.85;;;11.25;;
253;SDS011;590;48.772;8.846;2023-12-07T10:31:08;10.70;;;9.95;;
253;SDS011;590;48.772;8.846;2023-12-07T10:33:37;10.23;;;9.70;;
253;SDS011;590;48.772;8.846;2023-12-07T10:36:05;11.10;;;10.50;;
253;SDS011;590;48.772;8.846;2023-12-07T10:38:34;10.00;;;9.50;;
253;SDS011;590;48.772;8.846;2023-12-07T10:41:03;8.52;;;8.02;;
253;SDS011;590;48.772;8.846;2023-12-07T10:43:33;8.85;;;8.02;;
253;SDS011;590;48.772;8.846;2023-12-07T10:46:06;8.70;;;8.20;;
253;SDS011;590;48.772;8.846;2023-12-07T10:48:36;9.50;;;9.00;;
253;SDS011;590;48.772;8.846;2023-12-07T10:51:06;9.02;;;8.52;;
253;SDS011;590;48.772;8.846;2023-12-07T10:53:37;8.98;;;8.48;;
253;SDS011;590;48.772;8.846;2023-12-07T10:56:11;8.32;;;7.90;;
253;SDS011;590;48.772;8.846;2023-12-07T10:58:43;8.48;;;7.85;;
253;SDS011;590;48.772;8.846;2023-12-07T11:01:14;8.93;;;8.43;;
253;SDS011;590;48.772;8.846;2023-12-07T11:03:44;8.60;;;8.10;;
253;SDS011;590;48.772;8.846;2023-12-07T11:06:12;8.85;;;8.35;;
253;SDS011;590;48.772;8.846;2023-12-07T11:08:42;7.13;;;6.72;;
253;SDS011;590;48.772;8.846;2023-12-07T11:11:15;8.32;;;7.70;;
253;SDS011;590;48.772;8.846;2023-12-07T11:13:49;7.75;;;7.35;;
253;SDS011;590;48.772;8.846;2023-12-07T11:16:29;7.45;;;7.05;;
253;SDS011;590;48.772;8.846;2023-12-07T11:18:58;6.20;;;5.90;;
253;SDS011;590;48.772;8.846;2023-12-07T11:21:26;6.80;;;6.40;;
253;SDS011;590;48.772;8.846;2023-12-07T11:23:55;6.60;;;6.20;;
253;SDS011;590;48.772;8.846;2023-12-07T11:26:24;6.10;;;5.80;;
253;SDS011;590;48.772;8.846;2023-12-07T11:28:54;5.05;;;4.75;;
253;SDS011;590;48.772;8.846;2023-12-07T11:31:23;5.15;;;4.85;;
253;SDS011;590;48.772;8.846;2023-12-07T11:33:52;6.20;;;5.90;;
253;SDS011;590;48.772;8.846;2023-12-07T11:36:21;5.00;;;4.70;;
253;SDS011;590;48.772;8.846;2023-12-07T11:41:54;5.15;;;4.85;;
253;SDS011;590;48.772;8.846;2023-12-07T11:44:53;4.78;;;4.47;;
253;SDS011;590;48.772;8.846;2023-12-07T11:47:21;4.88;;;4.57;;
253;SDS011;590;48.772;8.846;2023-12-07T11:49:50;4.90;;;4.60;;
253;SDS011;590;48.772;8.846;2023-12-07T11:52:19;7.03;;;5.70;;
253;SDS011;590;48.772;8.846;2023-12-07T11:54:48;5.80;;;5.50;;
253;SDS011;590;48.772;8.846;2023-12-07T11:57:18;5.03;;;4.72;;
253;SDS011;590;48.772;8.846;2023-12-07T11:59:47;5.93;;;5.63;;
253;SDS011;590;48.772;8.846;2023-12-07T12:02:15;5.65;;;5.35;;
253;SDS011;590;48.772;8.846;2023-12-07T12:04:43;5.30;;;5.00;;
253;SDS011;590;48.772;8.846;2023-12-07T12:07:13;5.22;;;4.93;;
253;SDS011;590;48.772;8.846;2023-12-07T12:09:41;5.60;;;5.30;;
253;SDS011;590;48.772;8.846;2023-12-07T12:12:09;5.45;;;5.15;;
253;SDS011;590;48.772;8.846;2023-12-07T12:14:49;7.30;;;6.90;;
253;SDS011;590;48.772;8.846;2023-12-07T12:17:18;8.60;;;8.10;;
253;SDS011;590;48.772;8.846;2023-12-07T12:19:46;11.10;;;10.50;;
253;SDS011;590;48.772;8.846;2023-12-07T12:22:23;7.70;;;7.30;;
253;SDS011;590;48.772;8.846;2023-12-07T12:24:51;9.95;;;6.38;;
253;SDS011;590;48.772;8.846;2023-12-07T12:27:19;7.40;;;7.00;;
253;SDS011;590;48.772;8.846;2023-12-07T12:29:48;6.50;;;5.90;;
253;SDS011;590;48.772;8.846;2023-12-07T12:32:17;4.97;;;4.47;;
253;SDS011;590;48.772;8.846;2023-12-07T12:34:45;5.80;;;5.30;;
253;SDS011;590;48.772;8.846;2023-12-07T12:37:13;5.15;;;4.85;;
253;SDS011;590;48.772;8.846;2023-12-07T12:39:42;6.43;;;5.20;;
253;SDS011;590;48.772;8.846;2023-12-07T12:42:10;5.53;;;5.00;;
253;SDS011;590;48.772;8.846;2023-12-07T12:44:38;5.05;;;4.72;;
253;SDS011;590;48.772;8.846;2023-12-07T12:47:07;5.07;;;4.72;;
253;SDS011;590;48.772;8.846;2023-12-07T12:49:37;5.15;;;4.85;;
253;SDS011;590;48.772;8.846;2023-12-07T12:52:09;4.95;;;4.65;;
253;SDS011;590;48.772;8.846;2023-12-07T12:54:39;4.80;;;4.43;;
253;SDS011;590;48.772;8.846;2023-12-07T12:57:11;5.72;;;5.43;;
253;SDS011;590;48.772;8.846;2023-12-07T12:59:40;5.00;;;4.70;;
253;SDS011;590;48.772;8.846;2023-12-07T13:02:08;4.68;;;4.38;;
253;SDS011;590;48.772;8.846;2023-12-07T13:04:36;6.75;;;4.70;;
253;SDS011;590;48.772;8.846;2023-12-07T13:07:07;4.13;;;3.75;;
253;SDS011;590;48.772;8.846;2023-12-07T13:09:36;3.70;;;3.50;;
253;SDS011;590;48.772;8.846;2023-12-07T13:12:06;5.18;;;2.65;;
253;SDS011;590;48.772;8.846;2023-12-07T13:14:34;2.90;;;2.70;;
253;SDS011;590;48.772;8.846;2023-12-07T13:17:05;3.65;;;3.45;;
253;SDS011;590;48.772;8.846;2023-12-07T13:19:34;3.60;;;2.78;;
253;SDS011;590;48.772;8.846;2023-12-07T13:22:02;4.22;;;2.72;;
253;SDS011;590;48.772;8.846;2023-12-07T13:24:31;4.38;;;3.10;;
253;SDS011;590;48.772;8.846;2023-12-07T13:26:59;3.45;;;3.08;;
253;SDS011;590;48.772;8.846;2023-12-07T13:29:29;3.00;;;2.80;;
253;SDS011;590;48.772;8.846;2023-12-07T13:32:02;3.10;;;2.60;;
253;SDS011;590;48.772;8.846;2023-12-07T13:34:31;3.63;;;3.10;;
253;SDS011;590;48.772;8.846;2023-12-07T13:37:00;3.63;;;3.42;;
253;SDS011;590;48.772;8.846;2023-12-07T13:39:28;3.97;;;3.78;;
253;SDS011;590;48.772;8.846;2023-12-07T13:41:58;4.80;;;4.50;;
253;SDS011;590;48.772;8.846;2023-12-07T13:44:30;6.30;;;4.70;;
253;SDS011;590;48.772;8.846;2023-12-07T13:46:59;6.65;;;6.25;;
253;SDS011;590;48.772;8.846;2023-12-07T13:49:28;6.70;;;6.30;;
253;SDS011;590;48.772;8.846;2023-12-07T13:52:00;4.80;;;4.50;;
253;SDS011;590;48.772;8.846;2023-12-07T13:54:33;4.47;;;4.18;;
253;SDS011;590;48.772;8.846;2023-12-07T13:57:19;5.00;;;4.70;;
253;SDS011;590;48.772;8.846;2023-12-07T13:59:48;5.18;;;4.88;;
253;SDS011;590;48.772;8.846;2023-12-07T14:02:17;5.00;;;4.30;;
253;SDS011;590;48.772;8.846;2023-12-07T14:04:46;4.07;;;3.88;;
253;SDS011;590;48.772;8.846;2023-12-07T14:07:16;4.32;;;4.03;;
253;SDS011;590;48.772;8.846;2023-12-07T14:09:47;3.95;;;3.30;;
253;SDS011;590;48.772;8.846;2023-12-07T14:12:24;3.90;;;3.72;;
253;SDS011;590;48.772;8.846;2023-12-07T14:14:56;4.30;;;4.00;;
253;SDS011;590;48.772;8.846;2023-12-07T14:17:24;4.03;;;3.83;;
253;SDS011;590;48.772;8.846;2023-12-07T14:20:03;5.85;;;4.45;;
253;SDS011;590;48.772;8.846;2023-12-07T14:22:53;4.53;;;4.22;;
253;SDS011;590;48.772;8.846;2023-12-07T14:25:21;4.72;;;4.43;;
253;SDS011;590;48.772;8.846;2023-12-07T14:27:49;5.28;;;4.70;;
253;SDS011;590;48.772;8.846;2023-12-07T14:30:18;5.38;;;4.82;;
253;SDS011;590;48.772;8.846;2023-12-07T14:32:47;5.68;;;5.03;;
253;SDS011;590;48.772;8.846;2023-12-07T14:35:19;4.32;;;3.90;;
253;SDS011;590;48.772;8.846;2023-12-07T14:37:48;4.90;;;4.60;;
253;SDS011;590;48.772;8.846;2023-12-07T14:40:17;4.88;;;4.60;;
253;SDS011;590;48.772;8.846;2023-12-07T14:42:45;5.13;;;4.82;;
253;SDS011;590;48.772;8.846;2023-12-07T14:45:14;5.28;;;4.97;;
253;SDS011;590;48.772;8.846;2023-12-07T14:47:44;7.15;;;6.75;;
253;SDS011;590;48.772;8.846;2023-12-07T14:50:12;6.00;;;5.70;;
253;SDS011;590;48.772;8.846;2023-12-07T14:52:40;8.65;;;8.15;;
253;SDS011;590;48.772;8.846;2023-12-07T14:55:09;11.43;;;10.82;;
253;SDS011;590;48.772;8.846;2023-12-07T14:57:37;13.50;;;12.80;;
253;SDS011;590;48.772;8.846;2023-12-07T15:00:06;9.82;;;9.32;;
253;SDS011;590;48.772;8.846;2023-12-07T15:02:35;9.13;;;8.63;;
253;SDS011;590;48.772;8.846;2023-12-07T15:05:05;14.93;;;13.30;;
253;SDS011;590;48.772;8.846;2023-12-07T15:07:34;13.38;;;12.18;;
253;SDS011;590;48.772;8.846;2023-12-07T15:10:03;9.25;;;8.65;;
253;SDS011;590;48.772;8.846;2023-12-07T15:12:32;8.82;;;8.32;;
253;SDS011;590;48.772;8.846;2023-12-07T15:15:00;9.98;;;7.90;;
253;SDS011;590;48.772;8.846;2023-12-07T15:17:29;9.20;;;8.70;;
253;SDS011;590;48.772;8.846;2023-12-07T15:19:57;10.55;;;10.00;;
253;SDS011;590;48.772;8.846;2023-12-07T15:22:26;11.27;;;10.27;;
253;SDS011;590;48.772;8.846;2023-12-07T15:24:54;8.43;;;7.97;;
253;SDS011;590;48.772;8.846;2023-12-07T15:27:23;9.38;;;8.88;;
253;SDS011;590;48.772;8.846;2023-12-07T15:29:52;12.35;;;11.20;;
253;SDS011;590;48.772;8.846;2023-12-07T15:32:21;13.95;;;13.25;;
253;SDS011;590;48.772;8.846;2023-12-07T15:34:49;11.95;;;11.35;;
253;SDS011;590;48.772;8.846;2023-12-07T15:37:17;11.63;;;11.02;;
253;SDS011;590;48.772;8.846;2023-12-07T15:39:47;18.73;;;17.83;;
253;SDS011;590;48.772;8.846;2023-12-07T15:42:15;11.63;;;11.02;;
253;SDS011;590;48.772;8.846;2023-12-07T15:44:51;8.75;;;8.25;;
253;SDS011;590;48.772;8.846;2023-12-07T15:47:19;10.02;;;8.90;;
253;SDS011;590;48.772;8.846;2023-12-07T15:49:47;8.15;;;7.75;;
253;SDS011;590;48.772;8.846;2023-12-07T15:52:15;10.77;;;9.50;;
253;SDS011;590;48.772;8.846;2023-12-07T15:54:43;11.63;;;11.02;;